EGAA/BFS METAR and TAF weather

Enter ICAO airport designator
Station Type Date Time Source
EGAA METAR 2019/02/21 11:20 UTC NOAA

EGAA 211120Z 18009KT 150V220 9999 BKN018 12/09 Q1018


Station Type Date Time Source
EGAA Decoded METAR 2019/02/21 11:20 UTC NOAA

Belfast / Aldergrove Airport, United Kingdom (EGAA) 54-39N 006-13W 0M
Feb 21, 2019 - 06:20 AM EST / 2019.02.21 1120 UTC
Wind: from the S (180 degrees) at 10 MPH (9 KT) (direction variable):0
Visibility: greater than 7 mile(s):0
Sky conditions: mostly cloudy
Temperature: 53 F (12 C)
Dew Point: 48 F (9 C)
Relative Humidity: 81%
Pressure (altimeter): 30.06 in. Hg (1018 hPa)
ob: EGAA 211120Z 18009KT 150V220 9999 BKN018 12/09 Q1018
cycle: 11

Station Type Date Time Source
EGAA TAF 2019/02/21 12:06 UTC NOAA

TAF TAF EGAA 211102Z 2112/2212 19012KT 9999 FEW015 BKN022 PROB30
TEMPO 2112/2122 BKN014
BECMG 2121/2124 16015G25KT PROB30
TEMPO 2200/2205 17018G35KT CAVOK
BECMG 2205/2208 17011KT BKN014


Example: see airport list